Time;durP1;ratioP1;P1;durP2;ratioP2;P2;SDS_P1;SDS_P2;PMS_P1;PMS_P2;Temp;Humidity;BMP_temperature;BMP_pressure;BME280_temperature;BME280_humidity;BME280_pressure;Samples;Min_cycle;Max_cycle;Signal;HPM_P1;HPM_P2
2022/04/24 00:00:13;;;;;;;2.25;2.15;;;;;;;;;;5099075;28;20679;-85
2022/04/24 00:02:41;;;;;;;2.45;2.33;;;;;;;;;;5098809;28;20705;-85
2022/04/24 00:05:10;;;;;;;2.28;2.08;;;;;;;;;;5099297;28;20201;-85
2022/04/24 00:07:39;;;;;;;1.77;1.67;;;;;;;;;;5099366;28;20228;-85
2022/04/24 00:10:07;;;;;;;3.58;2.70;;;;;;;;;;5099019;28;20573;-84
2022/04/24 00:12:35;;;;;;;2.00;1.90;;;;;;;;;;5098555;28;20587;-84
2022/04/24 00:15:02;;;;;;;1.70;1.60;;;;;;;;;;5098877;28;20672;-84
2022/04/24 00:17:29;;;;;;;2.15;2.05;;;;;;;;;;5099451;28;20287;-84
2022/04/24 00:19:57;;;;;;;2.10;2.00;;;;;;;;;;5099025;28;20207;-83
2022/04/24 00:22:24;;;;;;;2.63;2.45;;;;;;;;;;5098504;28;20256;-85
2022/04/24 00:24:53;;;;;;;2.70;2.50;;;;;;;;;;5100186;28;20200;-83
2022/04/24 00:27:20;;;;;;;2.67;2.53;;;;;;;;;;5100674;28;20220;-86
2022/04/24 00:29:47;;;;;;;2.42;2.30;;;;;;;;;;5098670;28;20196;-87
2022/04/24 00:32:15;;;;;;;2.65;2.45;;;;;;;;;;5098119;28;20219;-86
2022/04/24 00:34:42;;;;;;;2.85;2.65;;;;;;;;;;5098584;28;20193;-85
2022/04/24 00:37:09;;;;;;;2.28;2.17;;;;;;;;;;5097786;28;20196;-86
2022/04/24 00:39:37;;;;;;;2.80;2.60;;;;;;;;;;5097836;28;20634;-87
2022/04/24 00:42:10;;;;;;;2.55;2.35;;;;;;;;;;5098119;28;20564;-86
2022/04/24 00:44:37;;;;;;;2.45;2.25;;;;;;;;;;5097852;28;20212;-86
2022/04/24 00:47:11;;;;;;;2.15;2.05;;;;;;;;;;5098017;28;20227;-85
2022/04/24 00:49:39;;;;;;;2.60;2.45;;;;;;;;;;5096759;28;20204;-85
2022/04/24 00:52:07;;;;;;;2.40;2.30;;;;;;;;;;5098629;28;20220;-85
2022/04/24 00:54:35;;;;;;;3.60;3.30;;;;;;;;;;5097932;28;20207;-83
2022/04/24 00:57:02;;;;;;;2.60;2.40;;;;;;;;;;5097540;28;20200;-83
2022/04/24 00:59:31;;;;;;;2.13;2.03;;;;;;;;;;5097750;28;20200;-83
2022/04/24 01:01:59;;;;;;;2.72;2.53;;;;;;;;;;5097440;28;20235;-86
2022/04/24 01:04:26;;;;;;;3.10;2.90;;;;;;;;;;5097504;28;20668;-86
2022/04/24 01:06:53;;;;;;;2.30;2.20;;;;;;;;;;5097790;28;20199;-86
2022/04/24 01:09:22;;;;;;;2.85;2.65;;;;;;;;;;5097391;28;20196;-84
2022/04/24 01:11:52;;;;;;;2.10;2.00;;;;;;;;;;5098253;28;20227;-84
2022/04/24 01:14:20;;;;;;;2.45;2.25;;;;;;;;;;5097807;28;20196;-85
2022/04/24 01:16:50;;;;;;;2.10;2.00;;;;;;;;;;5097616;28;20239;-85
2022/04/24 01:19:18;;;;;;;2.80;2.60;;;;;;;;;;5098210;28;20204;-85
2022/04/24 01:21:49;;;;;;;2.60;2.40;;;;;;;;;;5097024;28;20212;-85
2022/04/24 01:24:18;;;;;;;2.53;2.33;;;;;;;;;;5097566;28;20196;-84
2022/04/24 01:26:46;;;;;;;3.35;3.10;;;;;;;;;;5097867;28;20197;-85
2022/04/24 01:29:14;;;;;;;3.08;2.88;;;;;;;;;;5096956;28;20227;-84
2022/04/24 01:31:44;;;;;;;2.80;2.50;;;;;;;;;;5096518;28;20302;-87
2022/04/24 01:34:12;;;;;;;3.10;2.80;;;;;;;;;;5097723;28;20723;-86
2022/04/24 01:36:39;;;;;;;3.17;2.97;;;;;;;;;;5097519;28;20684;-85
2022/04/24 01:39:08;;;;;;;4.38;3.97;;;;;;;;;;5097255;28;20200;-86
2022/04/24 01:41:36;;;;;;;3.65;3.45;;;;;;;;;;5097285;28;20676;-86
2022/04/24 01:44:04;;;;;;;3.00;2.80;;;;;;;;;;5097348;28;20200;-84
2022/04/24 01:46:31;;;;;;;2.83;2.63;;;;;;;;;;5097440;28;20283;-84
2022/04/24 01:48:58;;;;;;;3.30;3.00;;;;;;;;;;5097671;28;20228;-85
2022/04/24 01:51:26;;;;;;;4.03;3.67;;;;;;;;;;5097085;28;20200;-84
2022/04/24 01:53:53;;;;;;;3.05;2.85;;;;;;;;;;5097244;28;20207;-83
2022/04/24 01:56:22;;;;;;;2.80;2.60;;;;;;;;;;5098208;28;20212;-83
2022/04/24 01:58:49;;;;;;;3.33;3.03;;;;;;;;;;5097795;28;20216;-83
2022/04/24 02:01:16;;;;;;;3.78;3.47;;;;;;;;;;5098635;28;20200;-86
2022/04/24 02:03:44;;;;;;;3.50;3.25;;;;;;;;;;5100568;28;20212;-86
2022/04/24 02:06:12;;;;;;;3.00;2.80;;;;;;;;;;5102047;28;20192;-87
2022/04/24 02:08:40;;;;;;;4.25;3.85;;;;;;;;;;5100864;28;20224;-87
2022/04/24 02:11:08;;;;;;;3.80;3.50;;;;;;;;;;5101130;28;20196;-87
2022/04/24 02:13:37;;;;;;;3.90;3.60;;;;;;;;;;5100287;28;20227;-87
2022/04/24 02:16:06;;;;;;;4.80;4.40;;;;;;;;;;5101185;28;20204;-87
2022/04/24 02:18:34;;;;;;;3.80;3.50;;;;;;;;;;5100174;28;20215;-88
2022/04/24 02:21:01;;;;;;;3.60;3.30;;;;;;;;;;5100210;28;20652;-87
2022/04/24 02:23:28;;;;;;;3.67;3.38;;;;;;;;;;5100136;28;20246;-87
2022/04/24 02:25:55;;;;;;;4.00;3.70;;;;;;;;;;5099697;28;20203;-87
2022/04/24 02:28:23;;;;;;;4.53;4.13;;;;;;;;;;5098455;28;20622;-86
2022/04/24 02:30:52;;;;;;;3.83;3.53;;;;;;;;;;5097966;28;20230;-85
2022/04/24 02:33:19;;;;;;;3.88;3.58;;;;;;;;;;5098377;28;20586;-84
2022/04/24 02:35:46;;;;;;;2.90;2.72;;;;;;;;;;5098837;28;20207;-85
2022/04/24 02:38:14;;;;;;;4.43;4.07;;;;;;;;;;5098686;28;20204;-85
2022/04/24 02:40:41;;;;;;;4.35;3.95;;;;;;;;;;5098139;28;20211;-83
2022/04/24 02:43:09;;;;;;;4.57;4.18;;;;;;;;;;5098626;28;20232;-84
2022/04/24 02:45:36;;;;;;;4.50;4.10;;;;;;;;;;5098855;28;20197;-83
2022/04/24 02:48:06;;;;;;;4.15;3.83;;;;;;;;;;5099002;28;20250;-84
2022/04/24 02:50:33;;;;;;;4.60;4.28;;;;;;;;;;5098831;28;20624;-83
2022/04/24 02:53:01;;;;;;;4.43;4.10;;;;;;;;;;5099076;28;20265;-84
2022/04/24 02:55:28;;;;;;;4.35;3.97;;;;;;;;;;5098030;28;20586;-85
2022/04/24 02:57:55;;;;;;;4.45;4.07;;;;;;;;;;5098328;28;20196;-84
2022/04/24 03:00:24;;;;;;;4.57;4.13;;;;;;;;;;5099152;28;20192;-85
2022/04/24 03:02:53;;;;;;;4.68;4.28;;;;;;;;;;5097976;28;20532;-84
2022/04/24 03:05:23;;;;;;;5.40;4.90;;;;;;;;;;5098273;28;20205;-84
2022/04/24 03:07:51;;;;;;;6.13;4.50;;;;;;;;;;5098057;28;20208;-84
2022/04/24 03:10:19;;;;;;;4.88;4.45;;;;;;;;;;5098187;28;20316;-84
2022/04/24 03:12:47;;;;;;;4.80;4.40;;;;;;;;;;5096797;28;20297;-85
2022/04/24 03:15:15;;;;;;;5.00;4.60;;;;;;;;;;5098144;28;20196;-86
2022/04/24 03:17:43;;;;;;;4.20;3.80;;;;;;;;;;5098011;28;20291;-87
2022/04/24 03:20:12;;;;;;;4.03;3.63;;;;;;;;;;5096949;28;20207;-86
2022/04/24 03:22:41;;;;;;;3.85;3.58;;;;;;;;;;5096584;28;20228;-85
2022/04/24 03:25:10;;;;;;;4.53;4.22;;;;;;;;;;5096860;28;20195;-87
2022/04/24 03:27:37;;;;;;;4.35;4.05;;;;;;;;;;5097161;28;20210;-86
2022/04/24 03:30:07;;;;;;;4.53;4.13;;;;;;;;;;5097083;28;20599;-87
2022/04/24 03:32:35;;;;;;;4.35;4.05;;;;;;;;;;5097240;28;20224;-85
2022/04/24 03:35:03;;;;;;;4.82;4.45;;;;;;;;;;5097475;28;20200;-84
2022/04/24 03:37:30;;;;;;;4.75;4.35;;;;;;;;;;5097399;28;20211;-86
2022/04/24 03:39:59;;;;;;;4.22;3.90;;;;;;;;;;5096942;28;20192;-85
2022/04/24 03:42:27;;;;;;;3.90;3.60;;;;;;;;;;5096362;28;20235;-83
2022/04/24 03:44:55;;;;;;;5.82;5.32;;;;;;;;;;5096896;28;20253;-84
2022/04/24 03:47:22;;;;;;;4.15;3.85;;;;;;;;;;5096665;28;20215;-83
2022/04/24 03:49:50;;;;;;;4.38;3.92;;;;;;;;;;5097215;28;20231;-83
2022/04/24 03:52:18;;;;;;;4.80;4.40;;;;;;;;;;5096122;28;20220;-83
2022/04/24 03:54:45;;;;;;;4.28;3.90;;;;;;;;;;5096974;28;20193;-85
2022/04/24 03:57:14;;;;;;;4.95;4.55;;;;;;;;;;5097011;28;20200;-84
2022/04/24 03:59:42;;;;;;;4.00;3.70;;;;;;;;;;5097198;28;20218;-84
2022/04/24 04:02:09;;;;;;;3.75;3.45;;;;;;;;;;5101005;23;20235;-79
2022/04/24 04:04:36;;;;;;;4.88;4.38;;;;;;;;;;5076725;28;20212;-78
2022/04/24 04:07:04;;;;;;;5.25;4.85;;;;;;;;;;5077275;28;20205;-79
2022/04/24 04:09:31;;;;;;;4.60;4.30;;;;;;;;;;5077180;28;20244;-78
2022/04/24 04:11:59;;;;;;;4.30;3.90;;;;;;;;;;5077132;28;20200;-78
2022/04/24 04:14:28;;;;;;;5.03;4.35;;;;;;;;;;5076748;28;20219;-78
2022/04/24 04:16:55;;;;;;;4.82;4.43;;;;;;;;;;5076982;28;20254;-81
2022/04/24 04:19:22;;;;;;;5.35;4.85;;;;;;;;;;5076626;28;20651;-80
2022/04/24 04:21:50;;;;;;;4.82;4.43;;;;;;;;;;5076312;28;20219;-80
2022/04/24 04:24:18;;;;;;;5.32;4.82;;;;;;;;;;5076225;28;20209;-81
2022/04/24 04:26:46;;;;;;;4.88;4.55;;;;;;;;;;5076018;28;20661;-79
2022/04/24 04:29:13;;;;;;;4.57;4.18;;;;;;;;;;5076269;28;20673;-80
2022/04/24 04:31:41;;;;;;;4.35;3.95;;;;;;;;;;5076044;28;20676;-80
2022/04/24 04:34:09;;;;;;;4.72;4.25;;;;;;;;;;5076366;28;20236;-81
2022/04/24 04:36:36;;;;;;;4.57;4.18;;;;;;;;;;5076030;28;20208;-78
2022/04/24 04:39:03;;;;;;;4.20;3.90;;;;;;;;;;5076449;28;20197;-80
2022/04/24 04:41:31;;;;;;;4.80;4.40;;;;;;;;;;5076072;28;20200;-80
2022/04/24 04:43:58;;;;;;;5.35;4.85;;;;;;;;;;5076634;28;20213;-80
2022/04/24 04:46:26;;;;;;;5.25;4.80;;;;;;;;;;5077784;28;20545;-81
2022/04/24 04:48:55;;;;;;;5.28;4.78;;;;;;;;;;5076551;28;20204;-80
2022/04/24 04:51:22;;;;;;;4.85;4.45;;;;;;;;;;5077518;28;20216;-80
2022/04/24 04:53:51;;;;;;;5.35;4.93;;;;;;;;;;5078022;28;20225;-81
2022/04/24 04:56:19;;;;;;;5.70;4.63;;;;;;;;;;5078020;28;20236;-80
2022/04/24 04:58:46;;;;;;;4.10;3.80;;;;;;;;;;5077848;28;20645;-82
2022/04/24 05:01:13;;;;;;;3.17;2.97;;;;;;;;;;5077270;28;20197;-82
2022/04/24 05:03:41;;;;;;;3.65;3.35;;;;;;;;;;5076520;28;20279;-79
2022/04/24 05:06:09;;;;;;;4.07;3.78;;;;;;;;;;5077465;28;20207;-81
2022/04/24 05:08:37;;;;;;;5.15;4.75;;;;;;;;;;5078012;28;20208;-78
2022/04/24 05:11:04;;;;;;;5.47;5.00;;;;;;;;;;5077757;28;20227;-81
2022/04/24 05:13:31;;;;;;;4.00;3.50;;;;;;;;;;5078211;28;20244;-80
2022/04/24 05:15:59;;;;;;;4.15;3.83;;;;;;;;;;5077875;28;20673;-79
2022/04/24 05:18:26;;;;;;;4.43;4.03;;;;;;;;;;5077202;28;20205;-82
2022/04/24 05:20:54;;;;;;;4.15;3.85;;;;;;;;;;5077540;28;20258;-82
2022/04/24 05:23:23;;;;;;;3.80;3.50;;;;;;;;;;5077902;28;20216;-82
2022/04/24 05:25:51;;;;;;;4.60;4.20;;;;;;;;;;5077203;28;20569;-82
2022/04/24 05:28:18;;;;;;;4.47;4.13;;;;;;;;;;5076866;28;20292;-82
2022/04/24 05:30:45;;;;;;;4.45;4.05;;;;;;;;;;5076532;28;20217;-80
2022/04/24 05:33:18;;;;;;;3.70;3.40;;;;;;;;;;5076602;28;20236;-81
2022/04/24 05:35:45;;;;;;;3.92;3.63;;;;;;;;;;5078169;28;20202;-79
2022/04/24 05:38:13;;;;;;;4.82;4.50;;;;;;;;;;5081345;28;20696;-82
2022/04/24 05:40:41;;;;;;;4.50;4.20;;;;;;;;;;5080431;28;20598;-82
2022/04/24 05:43:09;;;;;;;5.50;4.55;;;;;;;;;;5080146;28;20225;-82
2022/04/24 05:45:36;;;;;;;3.20;3.00;;;;;;;;;;5080590;28;20205;-82
2022/04/24 05:48:04;;;;;;;3.72;3.42;;;;;;;;;;5080367;28;20221;-81
2022/04/24 05:50:33;;;;;;;4.45;3.97;;;;;;;;;;5080523;28;20247;-81
2022/04/24 05:53:02;;;;;;;4.90;4.22;;;;;;;;;;5080233;28;20219;-80
2022/04/24 05:55:29;;;;;;;6.15;5.65;;;;;;;;;;5080471;28;20207;-81
2022/04/24 05:57:58;;;;;;;4.45;4.05;;;;;;;;;;5080072;28;20589;-81
2022/04/24 06:00:26;;;;;;;4.35;3.95;;;;;;;;;;5080287;28;20201;-81
2022/04/24 06:02:53;;;;;;;6.05;4.40;;;;;;;;;;5079994;28;20278;-79
2022/04/24 06:05:21;;;;;;;4.45;4.05;;;;;;;;;;5079760;28;20200;-80
2022/04/24 06:07:48;;;;;;;4.10;3.80;;;;;;;;;;5080159;28;20254;-79
2022/04/24 06:10:16;;;;;;;4.13;3.83;;;;;;;;;;5080720;28;20599;-81
2022/04/24 06:12:50;;;;;;;4.22;3.83;;;;;;;;;;5080698;28;20228;-78
2022/04/24 06:15:21;;;;;;;4.30;3.95;;;;;;;;;;5080864;28;20185;-80
2022/04/24 06:17:50;;;;;;;5.00;4.60;;;;;;;;;;5080516;28;20239;-79
2022/04/24 06:20:18;;;;;;;5.53;5.03;;;;;;;;;;5080847;28;20644;-79
2022/04/24 06:22:47;;;;;;;4.13;3.83;;;;;;;;;;5080040;28;20216;-79
2022/04/24 06:25:19;;;;;;;3.88;3.58;;;;;;;;;;5080663;28;20196;-79
2022/04/24 06:27:48;;;;;;;3.95;3.65;;;;;;;;;;5081201;28;20583;-80
2022/04/24 06:30:18;;;;;;;4.18;3.83;;;;;;;;;;5080478;28;20200;-81
2022/04/24 06:32:46;;;;;;;4.22;3.90;;;;;;;;;;5079671;28;20225;-80
2022/04/24 06:35:16;;;;;;;3.33;2.92;;;;;;;;;;5079255;28;20201;-81
2022/04/24 06:37:45;;;;;;;3.80;3.50;;;;;;;;;;5079740;28;20181;-81
2022/04/24 06:40:14;;;;;;;3.35;3.15;;;;;;;;;;5079701;28;20201;-81
2022/04/24 06:42:52;;;;;;;5.78;5.28;;;;;;;;;;5079414;28;20223;-81
2022/04/24 06:45:25;;;;;;;4.72;4.32;;;;;;;;;;5080637;28;20208;-81
2022/04/24 06:47:53;;;;;;;4.15;3.75;;;;;;;;;;5081301;28;20186;-81
2022/04/24 06:50:22;;;;;;;3.33;3.03;;;;;;;;;;5079927;28;20662;-85
2022/04/24 06:52:58;;;;;;;4.40;4.05;;;;;;;;;;5080824;28;20308;-81
2022/04/24 06:55:26;;;;;;;4.55;4.15;;;;;;;;;;5082354;28;20213;-81
2022/04/24 06:57:54;;;;;;;4.32;3.92;;;;;;;;;;5080882;28;20667;-82
2022/04/24 07:00:24;;;;;;;3.95;3.65;;;;;;;;;;5080945;28;20205;-80
2022/04/24 07:02:52;;;;;;;4.18;3.88;;;;;;;;;;5081051;28;20650;-80
2022/04/24 07:05:22;;;;;;;4.28;3.88;;;;;;;;;;5080563;28;20208;-80
2022/04/24 07:07:49;;;;;;;3.45;3.00;;;;;;;;;;5080533;28;20208;-82
2022/04/24 07:10:17;;;;;;;4.13;3.72;;;;;;;;;;5079649;28;20720;-82
2022/04/24 07:12:49;;;;;;;4.43;4.13;;;;;;;;;;5079195;28;20708;-82
2022/04/24 07:15:18;;;;;;;4.72;4.32;;;;;;;;;;5079243;28;20197;-81
2022/04/24 07:17:47;;;;;;;4.72;4.32;;;;;;;;;;5078575;28;20629;-82
2022/04/24 07:20:18;;;;;;;5.28;4.65;;;;;;;;;;5078639;28;20193;-81
2022/04/24 07:22:47;;;;;;;5.40;4.90;;;;;;;;;;5079510;28;20225;-82
2022/04/24 07:25:15;;;;;;;4.03;3.72;;;;;;;;;;5079965;28;20579;-80
2022/04/24 07:27:42;;;;;;;4.53;4.22;;;;;;;;;;5079794;28;20190;-82
2022/04/24 07:30:14;;;;;;;5.32;4.82;;;;;;;;;;5078749;28;20216;-82
2022/04/24 07:32:43;;;;;;;4.43;4.13;;;;;;;;;;5077829;28;20239;-82
2022/04/24 07:35:13;;;;;;;4.85;4.45;;;;;;;;;;5078028;28;20224;-81
2022/04/24 07:37:41;;;;;;;4.63;4.22;;;;;;;;;;5077324;28;20600;-82
2022/04/24 07:40:11;;;;;;;4.72;4.32;;;;;;;;;;5077257;28;20209;-83
2022/04/24 07:42:50;;;;;;;4.72;4.32;;;;;;;;;;5078759;28;20220;-84
2022/04/24 07:45:22;;;;;;;5.30;4.80;;;;;;;;;;5079349;28;20213;-84
2022/04/24 07:47:49;;;;;;;4.68;4.28;;;;;;;;;;5078740;28;20231;-83
2022/04/24 07:50:20;;;;;;;4.57;4.18;;;;;;;;;;5078379;28;20653;-83
2022/04/24 07:52:49;;;;;;;4.22;3.83;;;;;;;;;;5078118;28;20220;-81
2022/04/24 07:55:19;;;;;;;4.85;4.45;;;;;;;;;;5077909;28;20197;-83
2022/04/24 07:57:47;;;;;;;4.68;4.20;;;;;;;;;;5078226;28;20197;-83
2022/04/24 08:00:17;;;;;;;3.60;3.10;;;;;;;;;;5077517;28;20258;-83
2022/04/24 08:02:49;;;;;;;3.75;3.45;;;;;;;;;;5077029;28;20239;-82
2022/04/24 08:05:23;;;;;;;4.95;4.60;;;;;;;;;;5077295;28;20196;-83
2022/04/24 08:07:50;;;;;;;4.93;4.25;;;;;;;;;;5076894;28;20204;-83
2022/04/24 08:10:19;;;;;;;4.75;4.35;;;;;;;;;;5077277;28;20552;-84
2022/04/24 08:12:47;;;;;;;3.63;3.35;;;;;;;;;;5076545;28;20284;-84
2022/04/24 08:15:15;;;;;;;3.85;3.55;;;;;;;;;;5076945;28;20291;-85
2022/04/24 08:17:42;;;;;;;3.50;3.20;;;;;;;;;;5079329;28;20201;-83
2022/04/24 08:20:11;;;;;;;4.75;4.40;;;;;;;;;;5076530;28;20200;-81
2022/04/24 08:22:41;;;;;;;4.15;3.85;;;;;;;;;;5075574;28;20217;-84
2022/04/24 08:25:10;;;;;;;3.17;2.88;;;;;;;;;;5076393;28;20193;-83
2022/04/24 08:27:39;;;;;;;4.47;4.18;;;;;;;;;;5076066;28;20595;-81
2022/04/24 08:30:08;;;;;;;3.72;3.38;;;;;;;;;;5077073;28;20205;-81
2022/04/24 08:32:39;;;;;;;3.03;2.83;;;;;;;;;;5075792;28;20271;-83
2022/04/24 08:35:08;;;;;;;3.88;3.58;;;;;;;;;;5076212;28;20212;-82
2022/04/24 08:37:36;;;;;;;5.00;4.15;;;;;;;;;;5075369;28;20201;-82
2022/04/24 08:40:05;;;;;;;2.80;2.60;;;;;;;;;;5075304;28;20204;-83
2022/04/24 08:42:33;;;;;;;4.68;3.78;;;;;;;;;;5075543;28;20236;-82
2022/04/24 08:45:01;;;;;;;3.70;3.40;;;;;;;;;;5074712;28;20250;-83
2022/04/24 08:47:29;;;;;;;4.38;4.00;;;;;;;;;;5075041;28;20189;-83
2022/04/24 08:49:59;;;;;;;3.72;3.33;;;;;;;;;;5074795;28;20587;-84
2022/04/24 08:52:28;;;;;;;4.78;4.38;;;;;;;;;;5074690;28;20231;-82
2022/04/24 08:54:57;;;;;;;3.75;3.00;;;;;;;;;;5075418;28;20653;-84
2022/04/24 08:57:27;;;;;;;3.17;2.97;;;;;;;;;;5075280;28;20204;-81
2022/04/24 08:59:55;;;;;;;4.22;3.90;;;;;;;;;;5074678;28;20602;-83
2022/04/24 09:02:23;;;;;;;3.60;3.30;;;;;;;;;;5074694;28;20225;-82
2022/04/24 09:04:52;;;;;;;3.70;3.40;;;;;;;;;;5074882;28;20192;-81
2022/04/24 09:07:20;;;;;;;3.33;3.10;;;;;;;;;;5075415;28;20201;-81
2022/04/24 09:09:49;;;;;;;3.80;3.50;;;;;;;;;;5074785;28;20212;-82
2022/04/24 09:12:18;;;;;;;4.93;4.53;;;;;;;;;;5074406;28;20229;-83
2022/04/24 09:14:51;;;;;;;3.58;3.28;;;;;;;;;;5075387;28;20197;-84
2022/04/24 09:17:20;;;;;;;4.43;4.10;;;;;;;;;;5075713;28;20193;-82
2022/04/24 09:19:48;;;;;;;4.38;4.07;;;;;;;;;;5074808;28;20205;-83
2022/04/24 09:22:15;;;;;;;4.28;3.55;;;;;;;;;;5074918;28;20220;-82
2022/04/24 09:24:45;;;;;;;4.53;4.13;;;;;;;;;;5074933;28;20205;-83
2022/04/24 09:27:22;;;;;;;3.63;3.33;;;;;;;;;;5075149;28;20193;-84
2022/04/24 09:29:55;;;;;;;3.40;3.20;;;;;;;;;;5075202;28;20174;-82
2022/04/24 09:32:24;;;;;;;4.00;3.70;;;;;;;;;;5075232;28;20228;-86
2022/04/24 09:34:52;;;;;;;3.47;3.28;;;;;;;;;;5076388;28;20677;-86
2022/04/24 09:37:20;;;;;;;3.60;3.30;;;;;;;;;;5075414;28;20673;-86
2022/04/24 09:39:48;;;;;;;4.32;3.92;;;;;;;;;;5075484;28;20200;-84
2022/04/24 09:42:17;;;;;;;3.75;3.40;;;;;;;;;;5075984;28;20239;-84
2022/04/24 09:44:46;;;;;;;5.43;5.03;;;;;;;;;;5074861;28;20193;-87
2022/04/24 09:47:17;;;;;;;4.78;4.38;;;;;;;;;;5076960;28;20212;-86
2022/04/24 09:49:47;;;;;;;3.40;3.08;;;;;;;;;;5075789;28;20189;-79
2022/04/24 09:52:16;;;;;;;3.75;3.45;;;;;;;;;;5075461;28;20250;-84
2022/04/24 09:54:46;;;;;;;4.18;3.88;;;;;;;;;;5074295;28;20208;-82
2022/04/24 09:57:15;;;;;;;4.18;3.83;;;;;;;;;;5074371;28;20599;-83
2022/04/24 09:59:45;;;;;;;3.78;3.45;;;;;;;;;;5074700;28;20201;-83
2022/04/24 10:02:15;;;;;;;4.07;3.78;;;;;;;;;;5074674;28;20228;-81
2022/04/24 10:04:44;;;;;;;3.80;3.45;;;;;;;;;;5074548;28;20654;-83
2022/04/24 10:07:13;;;;;;;3.28;3.00;;;;;;;;;;5074304;28;20194;-82
2022/04/24 10:09:42;;;;;;;3.17;2.97;;;;;;;;;;5074094;28;20216;-82
2022/04/24 10:12:12;;;;;;;2.95;2.75;;;;;;;;;;5074483;28;20229;-79
2022/04/24 10:14:53;;;;;;;3.92;3.53;;;;;;;;;;5073628;28;20185;-82
2022/04/24 10:17:52;;;;;;;3.83;3.28;;;;;;;;;;5073778;28;20192;-80
2022/04/24 10:20:50;;;;;;;3.22;3.03;;;;;;;;;;5069862;28;20201;-82
2022/04/24 10:23:29;;;;;;;3.88;3.47;;;;;;;;;;5076045;28;20220;-82
2022/04/24 10:25:56;;;;;;;4.25;3.85;;;;;;;;;;5077172;28;20204;-81
2022/04/24 10:28:24;;;;;;;4.10;3.80;;;;;;;;;;5077913;28;20231;-81
2022/04/24 10:31:02;;;;;;;4.18;3.88;;;;;;;;;;5076546;28;20204;-82
2022/04/24 10:33:32;;;;;;;3.47;3.28;;;;;;;;;;5077496;28;20228;-81
2022/04/24 10:36:04;;;;;;;3.60;3.40;;;;;;;;;;5077389;28;20185;-81
2022/04/24 10:38:34;;;;;;;3.05;2.85;;;;;;;;;;5077792;28;20252;-82
2022/04/24 10:41:03;;;;;;;3.65;3.13;;;;;;;;;;5077468;28;20185;-80
2022/04/24 10:43:39;;;;;;;4.18;3.63;;;;;;;;;;5077032;28;20757;-81
2022/04/24 10:46:20;;;;;;;3.83;3.53;;;;;;;;;;5076615;28;20227;-81
2022/04/24 10:48:50;;;;;;;4.05;3.75;;;;;;;;;;5076255;28;20648;-81
2022/04/24 10:51:28;;;;;;;3.70;3.40;;;;;;;;;;5076070;28;20200;-80
2022/04/24 10:53:58;;;;;;;3.85;3.55;;;;;;;;;;5076242;28;20324;-80
2022/04/24 10:56:26;;;;;;;3.70;3.40;;;;;;;;;;5076060;28;20205;-80
2022/04/24 10:58:54;;;;;;;2.85;2.58;;;;;;;;;;5075880;28;20205;-81
2022/04/24 11:01:21;;;;;;;3.67;3.00;;;;;;;;;;5076356;28;20212;-81
2022/04/24 11:03:50;;;;;;;2.85;2.65;;;;;;;;;;5076126;28;20581;-79
2022/04/24 11:06:19;;;;;;;3.40;2.67;;;;;;;;;;5076739;28;20201;-80
2022/04/24 11:08:47;;;;;;;3.20;3.00;;;;;;;;;;5077803;28;20205;-78
2022/04/24 11:11:15;;;;;;;2.88;2.67;;;;;;;;;;5077732;28;20201;-79
2022/04/24 11:13:43;;;;;;;4.00;3.67;;;;;;;;;;5077425;28;20229;-81
2022/04/24 11:16:11;;;;;;;2.80;2.60;;;;;;;;;;5077563;28;20212;-80
2022/04/24 11:18:39;;;;;;;2.42;2.33;;;;;;;;;;5077099;28;20677;-81
2022/04/24 11:21:08;;;;;;;2.90;2.70;;;;;;;;;;5077016;28;20213;-82
2022/04/24 11:23:37;;;;;;;3.17;2.97;;;;;;;;;;5076210;28;20315;-83
2022/04/24 11:26:09;;;;;;;2.70;2.50;;;;;;;;;;5076175;28;20712;-83
2022/04/24 11:28:38;;;;;;;3.67;2.80;;;;;;;;;;5076514;28;20208;-84
2022/04/24 11:31:14;;;;;;;2.88;2.67;;;;;;;;;;5076884;28;20577;-81
2022/04/24 11:33:53;;;;;;;3.08;2.88;;;;;;;;;;5076363;28;20695;-83
2022/04/24 11:36:23;;;;;;;3.33;3.03;;;;;;;;;;5077426;28;20211;-82
2022/04/24 11:38:50;;;;;;;2.85;2.65;;;;;;;;;;5076709;28;20178;-83
2022/04/24 11:41:18;;;;;;;3.20;3.00;;;;;;;;;;5076526;28;20181;-81
2022/04/24 11:43:46;;;;;;;3.38;2.92;;;;;;;;;;5075856;28;20217;-82
2022/04/24 11:51:51;;;;;;;3.75;3.45;;;;;;;;;;5075608;28;20188;-81
2022/04/24 11:54:18;;;;;;;3.13;2.92;;;;;;;;;;5076273;28;20221;-79
2022/04/24 11:56:51;;;;;;;2.65;2.45;;;;;;;;;;5075357;28;20205;-81
2022/04/24 11:59:21;;;;;;;3.65;3.35;;;;;;;;;;5075492;28;20247;-81
2022/04/24 12:01:57;;;;;;;3.90;3.60;;;;;;;;;;5074936;28;20185;-81
2022/04/24 12:04:31;;;;;;;3.72;3.42;;;;;;;;;;5075836;28;20538;-80
2022/04/24 12:07:05;;;;;;;3.30;3.10;;;;;;;;;;5076283;28;20193;-80
2022/04/24 12:09:33;;;;;;;4.32;4.03;;;;;;;;;;5075073;28;20193;-80
2022/04/24 12:12:08;;;;;;;4.10;3.80;;;;;;;;;;5075773;28;20208;-82
2022/04/24 12:14:37;;;;;;;3.90;3.60;;;;;;;;;;5075892;28;20278;-83
2022/04/24 12:17:06;;;;;;;3.67;3.38;;;;;;;;;;5075186;28;20575;-82
2022/04/24 12:19:34;;;;;;;3.97;3.67;;;;;;;;;;5075711;28;20198;-83
2022/04/24 12:22:09;;;;;;;4.70;4.30;;;;;;;;;;5077263;28;20223;-80
2022/04/24 12:24:42;;;;;;;3.88;3.58;;;;;;;;;;5077637;28;20648;-83
2022/04/24 12:27:12;;;;;;;4.75;4.45;;;;;;;;;;5077545;28;20231;-82
2022/04/24 12:29:48;;;;;;;5.18;4.68;;;;;;;;;;5076884;28;20614;-82
2022/04/24 12:32:16;;;;;;;4.07;3.78;;;;;;;;;;5076437;28;20701;-84
2022/04/24 12:34:46;;;;;;;4.68;4.25;;;;;;;;;;5075368;28;20221;-84
2022/04/24 12:37:15;;;;;;;4.13;3.83;;;;;;;;;;5075495;28;20198;-82
2022/04/24 12:39:53;;;;;;;3.55;3.33;;;;;;;;;;5075059;28;20211;-82
2022/04/24 12:42:20;;;;;;;3.55;3.33;;;;;;;;;;5075321;28;20251;-82
2022/04/24 12:44:48;;;;;;;4.40;4.00;;;;;;;;;;5075212;28;20200;-80
2022/04/24 12:47:16;;;;;;;4.63;4.22;;;;;;;;;;5074743;28;20641;-81
2022/04/24 12:49:44;;;;;;;3.72;3.42;;;;;;;;;;5075046;28;20200;-82
2022/04/24 12:52:13;;;;;;;3.35;3.10;;;;;;;;;;5074370;28;20643;-82
2022/04/24 12:54:41;;;;;;;3.30;3.00;;;;;;;;;;5074123;28;20307;-81
2022/04/24 12:57:10;;;;;;;3.35;3.15;;;;;;;;;;5073592;28;20665;-82
2022/04/24 12:59:39;;;;;;;3.85;3.20;;;;;;;;;;5073889;28;20208;-80
2022/04/24 13:02:07;;;;;;;4.18;3.78;;;;;;;;;;5073283;28;20890;-80
2022/04/24 13:04:35;;;;;;;3.50;3.28;;;;;;;;;;5073763;28;20193;-80
2022/04/24 13:07:03;;;;;;;4.43;4.13;;;;;;;;;;5073300;28;20211;-80
2022/04/24 13:09:31;;;;;;;4.18;3.88;;;;;;;;;;5073118;28;20230;-80
2022/04/24 13:12:00;;;;;;;4.18;3.78;;;;;;;;;;5073451;28;20215;-80
2022/04/24 13:14:27;;;;;;;4.25;3.95;;;;;;;;;;5074360;28;20736;-83
2022/04/24 13:19:39;;;;;;;4.07;3.78;;;;;;;;;;5075616;28;20187;-81
2022/04/24 13:22:06;;;;;;;5.80;5.40;;;;;;;;;;5074157;28;20228;-80
2022/04/24 13:24:35;;;;;;;4.70;4.30;;;;;;;;;;5073427;28;20204;-78
2022/04/24 13:27:03;;;;;;;4.40;4.10;;;;;;;;;;5074295;28;20239;-80
2022/04/24 13:29:30;;;;;;;5.57;5.10;;;;;;;;;;5074827;28;20317;-81
2022/04/24 13:31:58;;;;;;;5.10;4.70;;;;;;;;;;5075017;28;20205;-81
2022/04/24 13:34:25;;;;;;;4.65;4.28;;;;;;;;;;5076276;28;20189;-81
2022/04/24 13:38:17;;;;;;;5.38;4.50;;;;;;;;;;5074564;28;20201;-83
2022/04/24 13:39:41;;;;;;;4.30;4.00;;;;;;;;;;5073567;28;20193;-81
2022/04/24 13:42:10;;;;;;;4.93;4.45;;;;;;;;;;5073956;28;20270;-79
2022/04/24 13:44:37;;;;;;;4.00;3.70;;;;;;;;;;5075417;28;20646;-82
2022/04/24 13:47:06;;;;;;;4.50;4.10;;;;;;;;;;5074900;28;20254;-82
2022/04/24 13:49:35;;;;;;;4.60;4.20;;;;;;;;;;5074890;28;20265;-83
2022/04/24 13:52:02;;;;;;;4.53;4.13;;;;;;;;;;5074035;28;20186;-84
2022/04/24 13:54:30;;;;;;;4.30;3.90;;;;;;;;;;5074458;28;20201;-82
2022/04/24 13:56:59;;;;;;;3.70;3.40;;;;;;;;;;5076194;28;20197;-83
2022/04/24 13:59:27;;;;;;;4.93;4.43;;;;;;;;;;5080024;28;20207;-86
2022/04/24 14:01:54;;;;;;;3.95;3.65;;;;;;;;;;5081104;28;20201;-85
2022/04/24 14:04:21;;;;;;;5.18;4.43;;;;;;;;;;5081698;28;20174;-83
2022/04/24 14:06:49;;;;;;;4.15;3.75;;;;;;;;;;5082121;28;20246;-83
2022/04/24 14:09:17;;;;;;;4.80;4.28;;;;;;;;;;5081704;28;20201;-83
2022/04/24 14:11:44;;;;;;;4.00;3.65;;;;;;;;;;5078368;28;20205;-83
2022/04/24 14:14:13;;;;;;;4.70;4.35;;;;;;;;;;5078510;28;20205;-83
2022/04/24 14:16:40;;;;;;;5.35;4.85;;;;;;;;;;5077889;28;20278;-82
2022/04/24 14:19:08;;;;;;;4.53;4.18;;;;;;;;;;5078108;28;20209;-83
2022/04/24 14:21:35;;;;;;;5.57;4.68;;;;;;;;;;5077469;28;20201;-83
2022/04/24 14:24:02;;;;;;;5.35;4.95;;;;;;;;;;5077872;28;20220;-82
2022/04/24 14:26:30;;;;;;;5.93;5.35;;;;;;;;;;5078386;28;20197;-84
2022/04/24 14:28:57;;;;;;;5.82;5.32;;;;;;;;;;5078167;28;20194;-85
2022/04/24 14:31:26;;;;;;;4.70;4.30;;;;;;;;;;5079127;28;20212;-82
2022/04/24 14:33:53;;;;;;;4.95;4.55;;;;;;;;;;5078119;28;20585;-81
2022/04/24 14:36:21;;;;;;;4.75;4.38;;;;;;;;;;5078682;28;20232;-80
2022/04/24 14:38:48;;;;;;;4.90;4.50;;;;;;;;;;5077961;28;20197;-81
2022/04/24 14:41:16;;;;;;;5.32;4.82;;;;;;;;;;5079594;28;20569;-83
2022/04/24 14:43:43;;;;;;;5.40;4.90;;;;;;;;;;5080307;28;20221;-82
2022/04/24 14:57:11;;;;;;;5.22;4.80;;;;;;;;;;5077907;28;20630;-81
2022/04/24 14:59:40;;;;;;;6.13;5.55;;;;;;;;;;5076893;28;20204;-82
2022/04/24 15:02:07;;;;;;;5.95;5.15;;;;;;;;;;5076255;28;20759;-81
2022/04/24 15:04:36;;;;;;;5.18;4.72;;;;;;;;;;5076168;28;20208;-81
2022/04/24 15:07:04;;;;;;;5.28;4.60;;;;;;;;;;5076960;28;20216;-81
2022/04/24 15:09:31;;;;;;;4.82;4.40;;;;;;;;;;5075333;28;20650;-81
2022/04/24 15:11:59;;;;;;;4.65;4.25;;;;;;;;;;5077092;28;20563;-81